createdAt,value
2022-08-25T00:02:59.006Z,19.7
2022-08-25T00:07:52.344Z,19.7
2022-08-25T00:12:54.617Z,19.6
2022-08-25T00:17:57.324Z,19.6
2022-08-25T00:22:59.698Z,19.5
2022-08-25T00:28:10.024Z,19.6
2022-08-25T00:33:03.043Z,19.6
2022-08-25T00:38:06.139Z,19.5
2022-08-25T00:43:08.567Z,19.5
2022-08-25T00:48:11.318Z,19.5
2022-08-25T00:53:13.591Z,19.4
2022-08-25T00:58:15.896Z,19.5
2022-08-25T01:03:18.686Z,19.5
2022-08-25T01:08:21.011Z,19.4
2022-08-25T01:13:23.324Z,19.4
2022-08-25T01:18:26.102Z,19
2022-08-25T01:23:28.874Z,19
2022-08-25T01:28:31.171Z,19
2022-08-25T01:33:34.385Z,19
2022-08-25T01:38:36.931Z,19
2022-08-25T01:43:39.268Z,18.9
2022-08-25T01:48:42.072Z,19
2022-08-25T01:53:44.400Z,18.9
2022-08-25T01:58:46.982Z,19.1
2022-08-25T02:03:51.828Z,19
2022-08-25T02:08:54.090Z,19
2022-08-25T02:13:56.999Z,19
2022-08-25T02:18:59.927Z,18.9
2022-08-25T02:24:02.660Z,18.9
2022-08-25T02:29:04.980Z,18.9
2022-08-25T02:34:07.743Z,18.8
2022-08-25T02:39:10.138Z,18.8
2022-08-25T02:44:12.775Z,18.9
2022-08-25T02:49:15.462Z,19
2022-08-25T02:54:17.785Z,18.9
2022-08-25T02:59:20.065Z,18.9
2022-08-25T03:04:22.892Z,18.8
2022-08-25T03:09:25.416Z,18.8
2022-08-25T03:14:28.193Z,18.9
2022-08-25T03:19:31.242Z,18.8
2022-08-25T03:24:33.586Z,18.8
2022-08-25T03:29:36.300Z,18.7
2022-08-25T03:34:41.218Z,18.7
2022-08-25T03:39:43.548Z,18.7
2022-08-25T03:44:46.194Z,18.7
2022-08-25T03:49:49.006Z,18.8
2022-08-25T03:54:51.691Z,18.7
2022-08-25T03:59:54.330Z,18.6
2022-08-25T04:04:57.589Z,18.7
2022-08-25T04:10:00.426Z,18.7
2022-08-25T04:15:03.266Z,18.8
2022-08-25T04:20:06.077Z,18.9
2022-08-25T04:25:08.424Z,18.9
2022-08-25T04:30:10.693Z,19.2
2022-08-25T04:35:13.439Z,19.5
2022-08-25T04:40:16.170Z,19.8
2022-08-25T04:45:18.666Z,19.7
2022-08-25T04:50:21.530Z,20.2
2022-08-25T04:55:23.797Z,20.1
2022-08-25T05:00:26.281Z,20.6
2022-08-25T05:05:28.622Z,21
2022-08-25T05:10:30.935Z,21.4
2022-08-25T05:15:35.408Z,22.1
2022-08-25T05:20:38.146Z,22.6
2022-08-25T05:25:40.471Z,22.6
2022-08-25T05:30:42.771Z,23.1
2022-08-25T05:35:45.372Z,24
2022-08-25T05:40:47.726Z,24
2022-08-25T05:45:50.509Z,25
2022-08-25T05:50:52.903Z,24.9
2022-08-25T05:55:55.348Z,25.4
2022-08-25T06:00:58.385Z,26.4
2022-08-25T06:06:01.263Z,26.3
2022-08-25T06:11:03.587Z,26.8
2022-08-25T06:16:06.563Z,27.5
2022-08-25T06:21:08.993Z,27.4
2022-08-25T06:26:19.059Z,28.3
2022-08-25T06:36:14.991Z,28.6
2022-08-25T06:41:17.570Z,28.9
2022-08-25T06:46:20.523Z,29.6
2022-08-25T06:51:23.083Z,29.5
2022-08-25T06:56:27.851Z,29.6
2022-08-25T07:01:34.328Z,29.6
2022-08-25T07:06:36.900Z,29.6
2022-08-25T07:11:39.314Z,30.4
2022-08-25T07:16:50.528Z,31.2
2022-08-25T07:21:43.217Z,30.9
2022-08-25T07:26:48.152Z,30.9
2022-08-25T07:31:50.915Z,31.7
2022-08-25T07:36:54.973Z,32.1
2022-08-25T07:41:57.817Z,32.6
2022-08-25T07:47:01.404Z,33.1
2022-08-25T07:52:10.041Z,33.5
2022-08-25T07:57:13.271Z,33.9
2022-08-25T08:02:21.368Z,34.5
2022-08-25T08:07:19.417Z,34.2
2022-08-25T08:12:23.782Z,34.7
2022-08-25T08:17:26.446Z,34.8
2022-08-25T08:22:29.029Z,34.7
2022-08-25T08:27:31.387Z,34.8
2022-08-25T08:33:12.803Z,35.1
2022-08-25T08:37:35.512Z,35.1
2022-08-25T08:42:38.042Z,35.4
2022-08-25T08:47:40.513Z,35.6
2022-08-25T08:52:44.865Z,37.1
2022-08-25T08:57:51.580Z,36.6
2022-08-25T09:02:56.346Z,35.6
2022-08-25T09:07:59.080Z,35.6
2022-08-25T09:13:08.785Z,37.4
2022-08-25T09:18:11.943Z,38.8
2022-08-25T09:23:21.257Z,39.4
2022-08-25T09:28:23.524Z,39.4
2022-08-25T09:33:26.169Z,39.6
2022-08-25T09:38:28.778Z,41
2022-08-25T09:43:31.933Z,40.9
2022-08-25T09:48:42.029Z,42.2
2022-08-25T09:53:44.964Z,42.2
2022-08-25T09:58:47.425Z,42.2
2022-08-25T10:03:49.699Z,41.8
2022-08-25T10:08:53.844Z,42
2022-08-25T10:13:56.426Z,42
2022-08-25T10:19:00.730Z,42.5
2022-08-25T10:24:03.349Z,41.2
2022-08-25T10:29:06.548Z,41.9
2022-08-25T10:34:09.612Z,43.1
2022-08-25T10:39:42.025Z,41.9
2022-08-25T10:44:14.656Z,41.7
2022-08-25T10:50:28.621Z,44
2022-08-25T10:55:30.950Z,43.9
2022-08-25T11:00:35.639Z,43.5
2022-08-25T11:05:38.518Z,43.8
2022-08-25T11:10:40.859Z,43.8
2022-08-25T11:16:19.045Z,42.3
2022-08-25T11:20:52.138Z,41.9
2022-08-25T11:25:54.976Z,41.9
2022-08-25T11:31:00.638Z,41.5
2022-08-25T11:36:03.622Z,42
2022-08-25T11:41:13.497Z,41.1
2022-08-25T11:46:16.148Z,40.7
2022-08-25T11:51:19.672Z,39.9
2022-08-25T11:56:27.348Z,41.2
2022-08-25T12:01:31.531Z,41.1
2022-08-25T12:06:33.827Z,41.1
2022-08-25T12:11:37.091Z,39.9
2022-08-25T12:16:45.580Z,40.1
2022-08-25T12:21:52.905Z,40
2022-08-25T12:26:55.804Z,38.1
2022-08-25T12:32:06.097Z,38.2
2022-08-25T12:37:01.537Z,37.1
2022-08-25T12:42:12.697Z,37.3
2022-08-25T12:47:15.208Z,37
2022-08-25T12:52:18.275Z,36.2
2022-08-25T12:57:30.861Z,36.2
2022-08-25T13:02:26.217Z,36.2
2022-08-25T13:07:33.404Z,36.8
2022-08-25T13:12:36.540Z,36.7
2022-08-25T13:17:39.642Z,36.7
2022-08-25T13:22:43.105Z,36.5
2022-08-25T13:27:46.208Z,36.2
2022-08-25T13:32:48.622Z,36.2
2022-08-25T13:37:52.107Z,35.5
2022-08-25T13:42:59.107Z,35.9
2022-08-25T13:48:06.762Z,35.5
2022-08-25T13:53:05.358Z,35.5
2022-08-25T13:58:32.461Z,35
2022-08-25T14:03:15.140Z,33.8
2022-08-25T14:08:29.626Z,33.8
2022-08-25T14:13:13.185Z,34
2022-08-25T14:18:28.056Z,33.8
2022-08-25T14:23:21.127Z,33.8
2022-08-25T14:28:26.617Z,33.3
2022-08-25T14:33:30.947Z,33.1
2022-08-25T14:38:34.153Z,32.8
2022-08-25T14:43:37.117Z,32.7
2022-08-25T14:48:43.439Z,32.9
2022-08-25T14:53:46.006Z,32.8
2022-08-25T14:58:55.402Z,33.2
2022-08-25T15:03:52.051Z,33.4
2022-08-25T15:08:56.111Z,33.4
2022-08-25T15:13:59.268Z,33.3
2022-08-25T15:19:06.465Z,33
2022-08-25T15:24:09.526Z,33
2022-08-25T15:29:13.614Z,32.8
2022-08-25T15:34:19.726Z,33
2022-08-25T15:39:23.412Z,32.9
2022-08-25T15:44:31.314Z,32.7
2022-08-25T15:49:34.536Z,32.5
2022-08-25T15:54:38.497Z,32.3
2022-08-25T15:59:43.713Z,32.2
2022-08-25T16:04:47.772Z,32.1
2022-08-25T16:09:53.497Z,32.2
2022-08-25T16:14:57.055Z,32.1
2022-08-25T16:20:01.891Z,32.1
2022-08-25T16:25:23.882Z,32.1
2022-08-25T16:30:26.412Z,31.9
2022-08-25T16:35:31.399Z,31.6
2022-08-25T16:40:38.423Z,31.1
2022-08-25T16:45:44.480Z,31
2022-08-25T16:50:49.553Z,30.5
2022-08-25T16:55:53.530Z,30.3
2022-08-25T17:00:58.076Z,30.1
2022-08-25T17:06:01.733Z,29.8
2022-08-25T17:11:05.659Z,29.5
2022-08-25T17:16:09.771Z,29.2
2022-08-25T17:21:25.410Z,29
2022-08-25T17:26:19.495Z,28.7
2022-08-25T17:31:20.323Z,28.5
2022-08-25T17:36:29.097Z,28.3
2022-08-25T17:41:31.374Z,28.2
2022-08-25T17:46:34.240Z,27.8
2022-08-25T17:51:36.735Z,27.7
2022-08-25T17:56:40.139Z,27.4
2022-08-25T18:01:44.144Z,27.2
2022-08-25T18:06:47.390Z,27
2022-08-25T18:11:50.344Z,26.9
2022-08-25T18:16:55.451Z,26.8
2022-08-25T18:21:57.990Z,26.8
2022-08-25T18:27:01.225Z,26.6
2022-08-25T18:32:07.684Z,26.5
2022-08-25T18:37:10.835Z,26.3
2022-08-25T18:42:13.567Z,26.3
2022-08-25T18:47:17.005Z,26.2
2022-08-25T18:52:23.446Z,26
2022-08-25T18:57:25.824Z,26
2022-08-25T19:02:31.761Z,25.8
2022-08-25T19:07:34.711Z,25.8
2022-08-25T19:12:41.926Z,25.6
2022-08-25T19:17:46.542Z,25.5
2022-08-25T19:22:49.118Z,25.5
2022-08-25T19:27:52.858Z,25.3
2022-08-25T19:32:55.664Z,25.2
2022-08-25T19:38:00.583Z,25.1
2022-08-25T19:43:03.958Z,24.9
2022-08-25T19:48:07.014Z,24.8
2022-08-25T19:53:14.038Z,24.7
2022-08-25T19:58:19.022Z,24.6
2022-08-25T20:03:23.297Z,24.5
2022-08-25T20:08:32.029Z,24.3
2022-08-25T20:13:34.518Z,24.3
2022-08-25T20:18:38.939Z,24.1
2022-08-25T20:23:42.419Z,24.1
2022-08-25T20:28:44.728Z,24
2022-08-25T20:33:50.041Z,23.8
2022-08-25T20:38:54.365Z,23.8
2022-08-25T20:44:01.646Z,23.7
2022-08-25T20:49:05.182Z,23.6
2022-08-25T20:54:08.026Z,23.6
2022-08-25T20:59:13.630Z,23.5
2022-08-25T21:04:22.590Z,23.4
2022-08-25T21:09:27.023Z,23.3
2022-08-25T21:14:29.690Z,23.3
2022-08-25T21:19:32.443Z,23.2
2022-08-25T21:24:34.874Z,23.2
2022-08-25T21:29:38.623Z,23.2
2022-08-25T21:34:49.496Z,23
2022-08-25T21:39:52.667Z,22.9
2022-08-25T21:44:55.715Z,22.8
2022-08-25T21:49:58.562Z,22.8
2022-08-25T21:55:03.141Z,22.7
2022-08-25T22:00:07.226Z,22.6
2022-08-25T22:05:12.777Z,22.6
2022-08-25T22:10:19.864Z,22.5
2022-08-25T22:15:22.094Z,22.5
2022-08-25T22:20:30.038Z,22.4
2022-08-25T22:25:33.540Z,22.4
2022-08-25T22:30:38.574Z,22.3
2022-08-25T22:35:43.756Z,22.3
2022-08-25T22:40:47.714Z,22.1
2022-08-25T22:45:54.582Z,22.1
2022-08-25T22:51:00.706Z,22
2022-08-25T22:56:04.852Z,21.9
2022-08-25T23:01:07.767Z,21.8
2022-08-25T23:06:10.503Z,21.7
2022-08-25T23:11:13.906Z,21.6
2022-08-25T23:16:16.779Z,21.5
2022-08-25T23:21:26.302Z,21.4
2022-08-25T23:26:21.708Z,21.3
2022-08-25T23:31:25.693Z,21.3
2022-08-25T23:36:30.877Z,21.3
2022-08-25T23:41:33.563Z,21.2
2022-08-25T23:46:38.274Z,21.2
2022-08-25T23:51:41.244Z,21.2
2022-08-25T23:56:54.298Z,21.2
